Terminal Aerodrome Forecast
Issued by NWS Portland, ME

Home | Current Version | Previous Version | Text Only | Print | Product List | Glossary On
Versions: 1 2 3 4 5 6 7 8 9 10 11 12 13 14 15 16 17 18
000
FTUS41 KGYX 030903 AAA
TAFPWM
TAF AMD
KPWM 030903Z 0309/0406 00000KT P6SM BKN200
     FM031300 01005KT P6SM SCT120 BKN200
     FM031700 09007KT P6SM SCT050 SCT080
     FM032100 12005KT P6SM VCTS SCT050CB BKN080=

USA.gov is the U.S. government's official web portal to all federal, state and local government web resources and services.